createdAt,value
2023-05-13T00:00:55.293Z,99919.13
2023-05-13T00:03:23.684Z,99923.41
2023-05-13T00:05:51.360Z,99918.00
2023-05-13T00:08:20.146Z,99914.34
2023-05-13T00:10:47.973Z,99920.53
2023-05-13T00:13:15.438Z,99923.50
2023-05-13T00:15:42.864Z,99921.00
2023-05-13T00:18:10.594Z,99916.69
2023-05-13T00:20:38.040Z,99916.09
2023-05-13T00:23:05.503Z,99912.31
2023-05-13T00:25:33.542Z,99915.59
2023-05-13T00:28:01.085Z,99925.47
2023-05-13T00:30:28.566Z,99931.25
2023-05-13T00:32:56.294Z,99928.62
2023-05-13T00:35:23.875Z,99915.34
2023-05-13T00:37:51.334Z,99925.03
2023-05-13T00:40:24.311Z,99925.25
2023-05-13T00:42:52.394Z,99923.41
2023-05-13T00:45:20.755Z,99921.50
2023-05-13T00:47:49.595Z,99930.59
2023-05-13T00:50:17.101Z,99930.19
2023-05-13T00:52:44.922Z,99931.72
2023-05-13T00:55:12.361Z,99937.34
2023-05-13T00:57:42.602Z,99938.34
2023-05-13T01:00:10.993Z,99929.62
2023-05-13T01:02:43.018Z,99930.69
2023-05-13T01:05:29.835Z,99938.13
2023-05-13T01:08:03.265Z,99931.87
2023-05-13T01:10:33.583Z,99940.16
2023-05-13T01:13:04.788Z,99933.94
2023-05-13T01:15:33.140Z,99936.78
2023-05-13T01:18:13.788Z,99933.00
2023-05-13T01:20:42.596Z,99938.59
2023-05-13T01:23:13.278Z,99939.37
2023-05-13T01:25:41.289Z,99941.44
2023-05-13T01:28:09.811Z,99943.72
2023-05-13T01:30:37.442Z,99943.84
2023-05-13T01:33:05.585Z,99948.06
2023-05-13T01:35:33.687Z,99947.00
2023-05-13T01:38:02.786Z,99945.28
2023-05-13T01:40:33.111Z,99944.72
2023-05-13T01:43:01.371Z,99947.66
2023-05-13T01:45:30.110Z,99944.62
2023-05-13T01:47:58.391Z,99948.37
2023-05-13T01:50:26.453Z,99947.81
2023-05-13T01:52:54.066Z,99948.69
2023-05-13T01:55:22.428Z,99947.00
2023-05-13T01:57:50.037Z,99941.28
2023-05-13T02:00:18.801Z,99948.63
2023-05-13T02:02:50.242Z,99949.56
2023-05-13T02:05:17.825Z,99941.09
2023-05-13T02:07:45.308Z,99955.66
2023-05-13T02:10:13.182Z,99942.25
2023-05-13T02:12:40.681Z,99950.72
2023-05-13T02:15:08.697Z,99947.63
2023-05-13T02:17:36.418Z,99945.50
2023-05-13T02:20:04.421Z,99946.59
2023-05-13T02:22:32.443Z,99945.59
2023-05-13T02:24:59.821Z,99949.13
2023-05-13T02:27:27.279Z,99949.84
2023-05-13T02:29:55.078Z,99945.34
2023-05-13T02:32:22.613Z,99950.25
2023-05-13T02:34:50.297Z,99953.91
2023-05-13T02:37:18.096Z,99956.25
2023-05-13T02:39:45.975Z,99952.38
2023-05-13T02:42:15.292Z,99952.38
2023-05-13T02:44:42.988Z,99954.75
2023-05-13T02:47:12.262Z,99966.53
2023-05-13T02:49:39.937Z,99966.88
2023-05-13T02:52:07.713Z,99957.94
2023-05-13T02:54:35.490Z,99960.19
2023-05-13T02:57:03.384Z,99965.91
2023-05-13T02:59:31.259Z,99961.97
2023-05-13T03:01:58.710Z,99963.41
2023-05-13T03:04:26.153Z,99959.78
2023-05-13T03:06:53.918Z,99965.78
2023-05-13T03:09:21.290Z,99961.81
2023-05-13T03:11:48.897Z,99961.97
2023-05-13T03:14:16.711Z,99962.56
2023-05-13T03:16:44.999Z,99956.22
2023-05-13T03:19:13.108Z,99964.59
2023-05-13T03:21:41.115Z,99966.88
2023-05-13T03:24:08.944Z,99964.75
2023-05-13T03:26:36.435Z,99976.84
2023-05-13T03:29:04.149Z,99974.59
2023-05-13T03:31:32.294Z,99969.06
2023-05-13T03:34:00.268Z,99966.78
2023-05-13T03:36:29.135Z,99974.31
2023-05-13T03:38:56.555Z,99981.78
2023-05-13T03:41:24.018Z,99989.88
2023-05-13T03:43:52.042Z,99987.69
2023-05-13T03:46:19.701Z,99984.22
2023-05-13T03:48:48.129Z,99988.44
2023-05-13T03:51:16.003Z,99983.41
2023-05-13T03:53:43.540Z,99984.50
2023-05-13T03:56:11.057Z,99987.97
2023-05-13T03:58:38.957Z,99982.72
2023-05-13T04:01:07.253Z,99991.25
2023-05-13T04:03:35.140Z,99997.09
2023-05-13T04:06:03.114Z,100002.97
2023-05-13T04:08:30.892Z,99995.41
2023-05-13T04:10:58.612Z,100001.31
2023-05-13T04:13:26.673Z,100001.25
2023-05-13T04:15:55.427Z,99997.94
2023-05-13T04:18:23.264Z,100004.44
2023-05-13T04:20:50.741Z,100005.16
2023-05-13T04:23:18.185Z,100002.72
2023-05-13T04:25:53.262Z,99999.28
2023-05-13T04:28:20.949Z,100011.56
2023-05-13T04:30:48.766Z,100009.87
2023-05-13T04:33:16.837Z,100006.94
2023-05-13T04:35:44.501Z,100014.16
2023-05-13T04:38:12.615Z,100012.00
2023-05-13T04:40:40.061Z,100011.16
2023-05-13T04:43:07.702Z,100016.09
2023-05-13T04:45:37.094Z,100016.44
2023-05-13T04:48:06.252Z,100016.84
2023-05-13T04:50:33.775Z,100014.47
2023-05-13T04:53:02.254Z,100011.13
2023-05-13T04:55:29.821Z,100022.88
2023-05-13T04:57:57.346Z,100021.56
2023-05-13T05:00:25.241Z,100029.78
2023-05-13T05:02:52.829Z,100038.31
2023-05-13T05:05:20.493Z,100031.56
2023-05-13T05:07:48.229Z,100039.97
2023-05-13T05:10:15.744Z,100037.19
2023-05-13T05:12:43.510Z,100041.91
2023-05-13T05:15:15.831Z,100037.53
2023-05-13T05:17:44.487Z,100029.94
2023-05-13T05:20:13.364Z,100034.00
2023-05-13T05:22:42.197Z,100043.94
2023-05-13T05:25:10.822Z,100040.41
2023-05-13T05:27:38.680Z,100049.66
2023-05-13T05:30:07.116Z,100048.56
2023-05-13T05:32:35.466Z,100046.87
2023-05-13T05:35:04.051Z,100054.06
2023-05-13T05:37:31.931Z,100055.62
2023-05-13T05:39:59.495Z,100056.50
2023-05-13T05:42:27.823Z,100053.56
2023-05-13T05:44:55.621Z,100052.12
2023-05-13T05:47:23.142Z,100050.09
2023-05-13T05:49:51.031Z,100048.62
2023-05-13T05:52:19.212Z,100051.44
2023-05-13T05:54:46.806Z,100039.66
2023-05-13T05:57:14.765Z,100045.44
2023-05-13T05:59:42.186Z,100049.53
2023-05-13T06:02:09.711Z,100046.97
2023-05-13T06:04:37.562Z,100056.03
2023-05-13T06:07:05.314Z,100055.03
2023-05-13T06:09:33.350Z,100058.19
2023-05-13T06:12:01.199Z,100058.44
2023-05-13T06:14:29.434Z,100058.81
2023-05-13T06:16:56.904Z,100055.91
2023-05-13T06:19:24.615Z,100068.47
2023-05-13T06:21:52.038Z,100061.28
2023-05-13T06:24:19.502Z,100063.47
2023-05-13T06:26:47.764Z,100072.25
2023-05-13T06:29:15.209Z,100063.72
2023-05-13T06:31:42.727Z,100077.59
2023-05-13T06:34:16.445Z,100067.00
2023-05-13T06:36:44.180Z,100071.16
2023-05-13T06:39:12.537Z,100070.81
2023-05-13T06:41:41.004Z,100071.41
2023-05-13T06:44:08.647Z,100066.75
2023-05-13T06:46:39.401Z,100069.94
2023-05-13T06:49:06.919Z,100071.78
2023-05-13T06:51:34.974Z,100073.00
2023-05-13T06:54:02.692Z,100068.47
2023-05-13T06:56:30.411Z,100071.16
2023-05-13T06:58:57.905Z,100064.47
2023-05-13T07:01:26.219Z,100070.31
2023-05-13T07:03:54.669Z,100067.25
2023-05-13T07:06:22.325Z,100062.34
2023-05-13T07:08:50.038Z,100056.09
2023-05-13T07:11:17.435Z,100059.38
2023-05-13T07:13:45.185Z,100055.78
2023-05-13T07:16:13.922Z,100053.94
2023-05-13T07:18:41.452Z,100055.41
2023-05-13T07:21:08.991Z,100054.66
2023-05-13T07:23:36.775Z,100063.97
2023-05-13T07:26:04.404Z,100061.41
2023-05-13T07:28:31.901Z,100068.34
2023-05-13T07:30:59.915Z,100058.69
2023-05-13T07:33:27.966Z,100068.13
2023-05-13T07:35:55.377Z,100070.53
2023-05-13T07:38:23.400Z,100079.06
2023-05-13T07:40:50.918Z,100080.19
2023-05-13T07:43:23.792Z,100085.16
2023-05-13T07:45:51.647Z,100076.91
2023-05-13T07:48:19.562Z,100078.25
2023-05-13T07:50:47.210Z,100073.31
2023-05-13T07:53:15.493Z,100083.50
2023-05-13T07:55:43.993Z,100085.47
2023-05-13T07:58:11.475Z,100082.66
2023-05-13T08:00:39.437Z,100088.63
2023-05-13T08:03:07.593Z,100088.53
2023-05-13T08:05:35.235Z,100090.56
2023-05-13T08:08:03.904Z,100095.03
2023-05-13T08:10:31.718Z,100099.16
2023-05-13T08:13:01.003Z,100103.06
2023-05-13T08:15:28.499Z,100109.16
2023-05-13T08:17:56.314Z,100104.78
2023-05-13T08:20:29.867Z,100112.28
2023-05-13T08:22:58.450Z,100104.97
2023-05-13T08:25:25.965Z,100116.28
2023-05-13T08:27:53.621Z,100112.34
2023-05-13T08:30:21.411Z,100115.37
2023-05-13T08:32:48.917Z,100121.84
2023-05-13T08:35:16.489Z,100134.69
2023-05-13T08:37:44.254Z,100126.75
2023-05-13T08:40:11.963Z,100123.34
2023-05-13T08:42:42.521Z,100135.03
2023-05-13T08:45:11.168Z,100124.19
2023-05-13T08:47:51.287Z,100121.87
2023-05-13T08:50:20.120Z,100129.56
2023-05-13T08:52:48.015Z,100131.87
2023-05-13T08:55:15.920Z,100125.37
2023-05-13T08:57:43.619Z,100127.25
2023-05-13T09:00:11.849Z,100122.59
2023-05-13T09:02:39.457Z,100117.84
2023-05-13T09:05:08.708Z,100121.53
2023-05-13T09:07:37.336Z,100122.69
2023-05-13T09:10:06.275Z,100114.47
2023-05-13T09:12:51.866Z,100119.53
2023-05-13T09:15:21.888Z,100122.69
2023-05-13T09:17:53.341Z,100123.94
2023-05-13T09:20:21.775Z,100116.50
2023-05-13T09:22:51.799Z,100115.75
2023-05-13T09:25:21.204Z,100121.13
2023-05-13T09:27:51.914Z,100115.66
2023-05-13T09:30:20.904Z,100123.53
2023-05-13T09:33:09.201Z,100125.97
2023-05-13T09:35:39.306Z,100119.53
2023-05-13T09:38:20.043Z,100127.34
2023-05-13T09:40:58.112Z,100127.16
2023-05-13T09:43:27.849Z,100125.69
2023-05-13T09:45:56.818Z,100129.88
2023-05-13T09:48:29.576Z,100121.53
2023-05-13T09:51:00.168Z,100125.66
2023-05-13T09:53:28.511Z,100121.87
2023-05-13T09:55:58.756Z,100115.31
2023-05-13T09:58:30.945Z,100111.44
2023-05-13T10:00:58.788Z,100111.94
2023-05-13T10:03:28.699Z,100116.66
2023-05-13T10:05:57.194Z,100113.56
2023-05-13T10:08:25.030Z,100118.03
2023-05-13T10:10:55.592Z,100124.44
2023-05-13T10:13:24.830Z,100118.37
2023-05-13T10:15:54.638Z,100124.22
2023-05-13T10:18:23.960Z,100114.47
2023-05-13T10:20:54.912Z,100111.44
2023-05-13T10:23:24.460Z,100121.78
2023-05-13T10:25:54.236Z,100119.22
2023-05-13T10:28:22.610Z,100113.94
2023-05-13T10:30:53.858Z,100105.63
2023-05-13T10:33:21.870Z,100115.63
2023-05-13T10:35:58.777Z,100107.78
2023-05-13T10:39:00.714Z,100117.00
2023-05-13T10:42:22.551Z,100113.47
2023-05-13T10:44:54.698Z,100119.53
2023-05-13T10:47:22.792Z,100120.69
2023-05-13T10:49:52.280Z,100121.34
2023-05-13T10:52:20.153Z,100127.63
2023-05-13T10:55:04.730Z,100127.88
2023-05-13T10:57:38.559Z,100122.09
2023-05-13T11:00:18.024Z,100119.84
2023-05-13T11:02:45.905Z,100125.72
2023-05-13T11:05:21.188Z,100125.78
2023-05-13T11:07:56.566Z,100115.25
2023-05-13T11:10:30.072Z,100122.06
2023-05-13T11:13:35.627Z,100126.38
2023-05-13T11:16:06.227Z,100112.97
2023-05-13T11:18:35.049Z,100113.62
2023-05-13T11:21:07.061Z,100111.37
2023-05-13T11:23:53.232Z,100112.75
2023-05-13T11:26:21.541Z,100114.28
2023-05-13T11:29:04.047Z,100105.41
2023-05-13T11:31:53.184Z,100119.38
2023-05-13T11:34:20.757Z,100122.28
2023-05-13T11:37:08.932Z,100124.81
2023-05-13T11:39:38.733Z,100120.94
2023-05-13T11:42:10.349Z,100127.72
2023-05-13T11:44:45.562Z,100123.88
2023-05-13T11:47:13.359Z,100119.00
2023-05-13T11:49:40.766Z,100126.44
2023-05-13T11:52:16.088Z,100129.88
2023-05-13T11:54:53.592Z,100125.06
2023-05-13T11:57:28.298Z,100130.34
2023-05-13T11:59:58.717Z,100128.97
2023-05-13T12:02:28.165Z,100135.37
2023-05-13T12:04:58.446Z,100139.09
2023-05-13T12:07:26.851Z,100132.37
2023-05-13T12:09:57.517Z,100128.78
2023-05-13T12:12:25.766Z,100132.94
2023-05-13T12:14:54.276Z,100124.75
2023-05-13T12:17:22.084Z,100133.91
2023-05-13T12:20:08.611Z,100129.84
2023-05-13T12:22:37.148Z,100144.47
2023-05-13T12:25:37.117Z,100139.38
2023-05-13T12:28:22.758Z,100141.03
2023-05-13T12:30:52.635Z,100141.41
2023-05-13T12:33:24.100Z,100142.53
2023-05-13T12:35:54.017Z,100143.53
2023-05-13T12:38:24.129Z,100136.84
2023-05-13T12:40:53.141Z,100135.63
2023-05-13T12:43:20.671Z,100141.91
2023-05-13T12:45:53.979Z,100141.03
2023-05-13T12:48:24.213Z,100137.59
2023-05-13T12:50:51.678Z,100142.53
2023-05-13T12:53:19.119Z,100138.63
2023-05-13T12:55:46.882Z,100132.16
2023-05-13T12:58:14.357Z,100143.66
2023-05-13T13:00:42.094Z,100139.13
2023-05-13T13:03:10.009Z,100144.78
2023-05-13T13:05:37.686Z,100143.72
2023-05-13T13:08:05.490Z,100141.13
2023-05-13T13:10:33.295Z,100134.19
2023-05-13T13:13:00.707Z,100136.84
2023-05-13T13:15:28.236Z,100136.78
2023-05-13T13:17:56.038Z,100135.63
2023-05-13T13:20:23.625Z,100128.91
2023-05-13T13:22:51.087Z,100131.16
2023-05-13T13:25:18.940Z,100130.88
2023-05-13T13:27:46.495Z,100123.78
2023-05-13T13:30:14.616Z,100119.50
2023-05-13T13:32:42.365Z,100121.22
2023-05-13T13:35:10.186Z,100131.47
2023-05-13T13:37:38.123Z,100129.63
2023-05-13T13:40:06.501Z,100124.22
2023-05-13T13:45:09.109Z,100136.59
2023-05-13T13:47:36.642Z,100131.84
2023-05-13T13:50:04.604Z,100134.59
2023-05-13T13:52:32.558Z,100140.81
2023-05-13T13:55:00.466Z,100131.03
2023-05-13T13:57:27.981Z,100131.97
2023-05-13T13:59:55.767Z,100123.38
2023-05-13T14:02:23.515Z,100119.66
2023-05-13T14:04:52.283Z,100120.97
2023-05-13T14:07:20.253Z,100115.56
2023-05-13T14:09:48.578Z,100120.12
2023-05-13T14:12:16.376Z,100108.91
2023-05-13T14:14:43.790Z,100118.66
2023-05-13T14:17:12.348Z,100114.16
2023-05-13T14:19:42.444Z,100106.91
2023-05-13T14:22:09.970Z,100103.19
2023-05-13T14:24:37.404Z,100100.75
2023-05-13T14:27:05.630Z,100095.34
2023-05-13T14:29:33.219Z,100097.47
2023-05-13T14:32:03.054Z,100097.53
2023-05-13T14:34:30.794Z,100089.38
2023-05-13T14:36:58.233Z,100101.59
2023-05-13T14:39:25.628Z,100095.66
2023-05-13T14:41:53.314Z,100096.22
2023-05-13T14:44:20.774Z,100095.56
2023-05-13T14:46:48.337Z,100098.75
2023-05-13T14:49:16.296Z,100089.53
2023-05-13T14:51:43.940Z,100092.00
2023-05-13T14:54:11.419Z,100096.38
2023-05-13T14:56:39.099Z,100093.53
2023-05-13T14:59:06.559Z,100080.59
2023-05-13T15:01:34.266Z,100087.72
2023-05-13T15:04:02.258Z,100081.19
2023-05-13T15:06:29.738Z,100091.56
2023-05-13T15:08:57.485Z,100090.81
2023-05-13T15:11:27.746Z,100096.22
2023-05-13T15:13:55.572Z,100089.97
2023-05-13T15:16:23.103Z,100086.59
2023-05-13T15:18:50.920Z,100088.41
2023-05-13T15:21:18.491Z,100093.31
2023-05-13T15:23:45.938Z,100088.66
2023-05-13T15:26:13.805Z,100092.25
2023-05-13T15:28:41.236Z,100094.53
2023-05-13T15:31:08.795Z,100084.59
2023-05-13T15:33:36.599Z,100095.09
2023-05-13T15:36:05.741Z,100085.31
2023-05-13T15:38:33.193Z,100109.28
2023-05-13T15:41:02.789Z,100101.31
2023-05-13T15:43:32.071Z,100104.06
2023-05-13T15:46:00.301Z,100096.66
2023-05-13T15:48:29.488Z,100101.91
2023-05-13T15:50:56.980Z,100099.94
2023-05-13T15:53:24.474Z,100101.06
2023-05-13T15:55:52.972Z,100105.44
2023-05-13T15:58:20.514Z,100107.28
2023-05-13T16:00:47.986Z,100102.19
2023-05-13T16:03:17.067Z,100105.56
2023-05-13T16:05:45.961Z,100098.31
2023-05-13T16:08:13.432Z,100102.91
2023-05-13T16:10:41.174Z,100100.91
2023-05-13T16:13:08.897Z,100104.47
2023-05-13T16:15:36.319Z,100100.50
2023-05-13T16:18:04.276Z,100107.31
2023-05-13T16:20:31.685Z,100105.50
2023-05-13T16:22:59.287Z,100101.91
2023-05-13T16:25:27.302Z,100097.97
2023-05-13T16:27:56.602Z,100099.50
2023-05-13T16:30:24.280Z,100085.56
2023-05-13T16:32:55.033Z,100089.69
2023-05-13T16:35:22.748Z,100084.44
2023-05-13T16:37:50.592Z,100086.00
2023-05-13T16:40:18.374Z,100083.00
2023-05-13T16:42:46.525Z,100082.31
2023-05-13T16:45:14.056Z,100077.28
2023-05-13T16:47:41.865Z,100080.87
2023-05-13T16:50:09.821Z,100082.69
2023-05-13T16:52:37.294Z,100083.56
2023-05-13T16:55:05.812Z,100072.19
2023-05-13T16:57:33.309Z,100080.75
2023-05-13T17:00:00.800Z,100073.06
2023-05-13T17:02:28.688Z,100070.03
2023-05-13T17:04:56.212Z,100066.09
2023-05-13T17:07:23.725Z,100070.81
2023-05-13T17:09:51.430Z,100081.19
2023-05-13T17:12:18.879Z,100076.47
2023-05-13T17:14:46.323Z,100075.63
2023-05-13T17:17:14.195Z,100081.47
2023-05-13T17:19:42.431Z,100085.41
2023-05-13T17:22:09.991Z,100081.16
2023-05-13T17:24:38.572Z,100077.75
2023-05-13T17:27:06.543Z,100079.75
2023-05-13T17:29:33.996Z,100071.63
2023-05-13T17:32:01.756Z,100068.53
2023-05-13T17:34:29.253Z,100064.84
2023-05-13T17:36:56.707Z,100057.22
2023-05-13T17:39:24.487Z,100056.16
2023-05-13T17:41:52.160Z,100057.72
2023-05-13T17:44:20.129Z,100063.44
2023-05-13T17:46:48.063Z,100066.41
2023-05-13T17:49:15.748Z,100071.53
2023-05-13T17:51:43.296Z,100071.53
2023-05-13T17:54:11.501Z,100071.81
2023-05-13T17:56:38.993Z,100066.53
2023-05-13T17:59:07.421Z,100074.03
2023-05-13T18:01:35.223Z,100078.31
2023-05-13T18:04:03.009Z,100074.63
2023-05-13T18:06:31.196Z,100080.63
2023-05-13T18:08:58.804Z,100074.59
2023-05-13T18:11:26.720Z,100068.25
2023-05-13T18:13:54.127Z,100067.41
2023-05-13T18:16:21.709Z,100057.44
2023-05-13T18:18:49.517Z,100060.00
2023-05-13T18:21:17.057Z,100053.00
2023-05-13T18:23:46.140Z,100071.31
2023-05-13T18:26:13.856Z,100070.03
2023-05-13T18:28:41.756Z,100070.16
2023-05-13T18:31:09.239Z,100073.88
2023-05-13T18:33:37.000Z,100084.25
2023-05-13T18:36:04.750Z,100093.34
2023-05-13T18:38:32.239Z,100085.50
2023-05-13T18:41:03.235Z,100087.31
2023-05-13T18:43:30.784Z,100091.97
2023-05-13T18:45:58.465Z,100082.97
2023-05-13T18:48:26.338Z,100077.44
2023-05-13T18:50:53.915Z,100090.25
2023-05-13T18:53:21.700Z,100088.94
2023-05-13T18:55:49.634Z,100098.47
2023-05-13T18:58:17.336Z,100098.94
2023-05-13T19:00:44.870Z,100096.53
2023-05-13T19:03:12.825Z,100100.34
2023-05-13T19:05:40.317Z,100104.53
2023-05-13T19:08:09.043Z,100104.87
2023-05-13T19:10:39.674Z,100099.88
2023-05-13T19:13:08.002Z,100104.56
2023-05-13T19:15:35.686Z,100104.63
2023-05-13T19:18:03.486Z,100108.88
2023-05-13T19:20:31.224Z,100102.06
2023-05-13T19:22:58.695Z,100102.53
2023-05-13T19:25:26.429Z,100101.81
2023-05-13T19:27:54.232Z,100107.72
2023-05-13T19:30:21.945Z,100102.75
2023-05-13T19:32:50.838Z,100098.53
2023-05-13T19:35:18.336Z,100098.50
2023-05-13T19:37:45.775Z,100107.50
2023-05-13T19:40:13.571Z,100108.75
2023-05-13T19:42:41.372Z,100102.34
2023-05-13T19:45:10.677Z,100101.78
2023-05-13T19:47:38.756Z,100097.69
2023-05-13T19:50:06.625Z,100098.63
2023-05-13T19:52:34.105Z,100097.13
2023-05-13T19:55:01.867Z,100102.25
2023-05-13T19:57:30.173Z,100099.09
2023-05-13T19:59:58.674Z,100096.38
2023-05-13T20:02:26.427Z,100100.78
2023-05-13T20:04:54.504Z,100100.22
2023-05-13T20:07:21.992Z,100102.91
2023-05-13T20:09:49.410Z,100098.81
2023-05-13T20:12:17.211Z,100096.81
2023-05-13T20:14:49.633Z,100088.56
2023-05-13T20:17:21.455Z,100092.84
2023-05-13T20:19:50.053Z,100096.66
2023-05-13T20:22:18.939Z,100095.94
2023-05-13T20:24:47.948Z,100104.75
2023-05-13T20:27:16.576Z,100104.03
2023-05-13T20:29:46.923Z,100103.78
2023-05-13T20:32:16.750Z,100109.16
2023-05-13T20:34:44.872Z,100109.44
2023-05-13T20:37:12.442Z,100096.81
2023-05-13T20:39:39.882Z,100097.41
2023-05-13T20:42:07.874Z,100086.88
2023-05-13T20:44:35.483Z,100085.06
2023-05-13T20:47:03.313Z,100075.06
2023-05-13T20:49:31.426Z,100080.59
2023-05-13T20:52:03.667Z,100079.88
2023-05-13T20:54:31.590Z,100082.88
2023-05-13T20:57:01.116Z,100079.44
2023-05-13T20:59:28.593Z,100077.03
2023-05-13T21:01:56.400Z,100081.31
2023-05-13T21:04:25.505Z,100076.62
2023-05-13T21:06:53.149Z,100082.19
2023-05-13T21:09:20.905Z,100088.59
2023-05-13T21:11:48.361Z,100088.44
2023-05-13T21:14:16.019Z,100077.91
2023-05-13T21:16:43.857Z,100075.16
2023-05-13T21:19:24.382Z,100075.69
2023-05-13T21:21:52.134Z,100071.00
2023-05-13T21:24:19.835Z,100073.25
2023-05-13T21:26:49.148Z,100073.34
2023-05-13T21:29:18.898Z,100068.38
2023-05-13T21:31:47.480Z,100078.59
2023-05-13T21:34:15.057Z,100071.06
2023-05-13T21:36:42.795Z,100063.56
2023-05-13T21:39:10.602Z,100068.09
2023-05-13T21:41:38.118Z,100059.72
2023-05-13T21:44:06.167Z,100063.72
2023-05-13T21:46:33.641Z,100059.25
2023-05-13T21:49:01.607Z,100051.78
2023-05-13T21:51:29.540Z,100058.84
2023-05-13T21:53:56.921Z,100058.63
2023-05-13T21:56:24.368Z,100052.53
2023-05-13T21:58:52.050Z,100054.94
2023-05-13T22:01:19.674Z,100040.75
2023-05-13T22:03:47.395Z,100048.06
2023-05-13T22:06:14.790Z,100047.44
2023-05-13T22:08:42.229Z,100041.03
2023-05-13T22:11:11.354Z,100032.16
2023-05-13T22:13:38.858Z,100029.66
2023-05-13T22:16:06.553Z,100040.34
2023-05-13T22:18:34.506Z,100033.37
2023-05-13T22:21:02.204Z,100036.91
2023-05-13T22:23:29.716Z,100042.28
2023-05-13T22:25:57.472Z,100042.44
2023-05-13T22:28:25.025Z,100043.75
2023-05-13T22:30:52.448Z,100043.94
2023-05-13T22:33:20.155Z,100049.94
2023-05-13T22:35:47.798Z,100051.84
2023-05-13T22:38:15.260Z,100049.00
2023-05-13T22:40:43.013Z,100040.69
2023-05-13T22:43:10.573Z,100043.56
2023-05-13T22:45:38.097Z,100047.28
2023-05-13T22:48:06.135Z,100039.94
2023-05-13T22:50:33.639Z,100029.06
2023-05-13T22:53:01.120Z,100030.56
2023-05-13T22:55:28.841Z,100033.44
2023-05-13T22:57:56.211Z,100032.66
2023-05-13T23:00:23.896Z,100036.34
2023-05-13T23:02:51.774Z,100027.28
2023-05-13T23:05:19.264Z,100023.94
2023-05-13T23:07:46.803Z,100030.63
2023-05-13T23:10:14.520Z,100029.88
2023-05-13T23:12:41.982Z,100028.72
2023-05-13T23:15:11.666Z,100028.72
2023-05-13T23:17:39.596Z,100029.09
2023-05-13T23:20:07.578Z,100027.41
2023-05-13T23:22:35.302Z,100023.63
2023-05-13T23:25:03.734Z,100026.25
2023-05-13T23:27:31.836Z,100024.84
2023-05-13T23:29:59.673Z,100028.59
2023-05-13T23:32:27.378Z,100021.03
2023-05-13T23:34:54.938Z,100020.34
2023-05-13T23:37:22.543Z,100021.31
2023-05-13T23:39:50.265Z,100021.13
2023-05-13T23:42:17.663Z,100020.94
2023-05-13T23:44:45.105Z,100017.38
2023-05-13T23:47:13.549Z,100009.53
2023-05-13T23:49:41.083Z,100006.06
2023-05-13T23:52:08.537Z,100002.38
2023-05-13T23:54:36.307Z,99994.84
2023-05-13T23:57:03.992Z,99995.88
2023-05-13T23:59:31.442Z,100001.59
